map of LOT home
LOT - Airport
Location
City:  Chicago/Romeoville, Illinois, United States
Name:Lewis University Airport
ICAO:KLOT
IATA:LOT
FAA LID:LOT

Details
Type:Airport (Airfield)
Use:Public/Civil
Latitude:4136'29"N (41.608111)
Longitude:8805'46"W (-88.096193)
Datum:WGS 1984
Elevation:679 ft (207 m)
Variation:3.51W (WMM2015v2 magnetic declination)
-0.04 annual change
Runways:2
Longest:6500 × 100 ft (1981 × 30.5 m), paved

Time
Time Zone:UTC-6 (DST-5)
Local Time:

Weather
METAR:KLOT 041415Z AUTO 19012G18KT 7SM OVC010 09/08 A2969 RMK AO2 T00880079

Related Locations
Nearby:
Farthest:YAUG: 11081 mi / 17833 km
Augusta [Augusta Airport], WA, AU

Find:

   beyond  
but within

Other Information
Maps:
NOTAMs:
Links:
Sources:

  
  • flag of United States
  • flag of Illinois
  

Sectional Chart

Flight Planning
at skyvector.com

Satellite Image

Google Maps Satellite view

 

Copyright © 2004-2019 Karl L. Swartz. All rights reserved.
The Great Circle Mapper name and logo are trademarks of the Great Circle Mapper.
All other trademarks mentioned herein belong to their respective owners.
Please see credits for attibutions and further copyright information.

  Follow gcmap on Facebook Follow gcmap on Twitter GCmap on LinkedIn

hCard Microformat

Geo Microformat